TOURFACTS.DK  
Stats and Facts from Tour de France.

Tour de France 2018 starts in 13 days
  Riders   Stages   Teams   Summits   Yearly  


 
Search by year

After 2017 - Stage 21:
 14824 starters.
  5132 different riders.
  639 teams.
  2232 stages.
  456 restdays.
  439589.60 km.
  5653 abandonnees.


Top 3
GC
Christopher Froome86:20:55
Rigoberto Urán86:21:49
Romain Bardet86:23:15
Climb
Warren Barguil169 pt.
Primoz Roglic80 pt.
Thomas De Gendt64 pt.
Sprint
Michael Matthews359 pt.
André Greipel234 pt.
Edvald Boasson Hagen220 pt.
Youth
Simon Yates86:27:09
Louis Meintjes86:29:15
Emanuel Buchmann86:54:16
Facts from Tour de France 2010
  |   Stages.  |   Stage winners.  |   Days in yellow  |   Average speed.  |   Route.  |   Teams.  |   All riders.  |   Rookies.  |  

  |   Withdrawls.  |   GC.  |   Polka  |   Green  |   White  |   Summits. (In tour)  |   Miscellaneous.  |  

Stage 3 on 06 - 07 - 2010
         Owning:    Fabian Cancellara    
Pick a stage:  Pro 1 2 3 4 5 6 7 8 9 10 11 12 13 14 15 16 17 18 19 20
  WanzeArenberg-Porte-du-Hainaut | Dist: 213.00 km.
Cat: 4Côte de BotheyCANRyder Hesjedal
3 points
 

Average speed for all riders in stage:  43,248 km./hr.
    Place:Name:Team:Time:Km/h:
NORThor HushovdCHECervelo Test Team04:49:38  +  00:00:00=44,125 
WALGeraint ThomasGBRSky Procycling04:49:38  +  00:00:00=44,125 
AUSCadel EvansUSABMC Racing Team04:49:38  +  00:00:00=44,125 
4 CANRyder HesjedalUSAGarmin-Transitions04:49:38  +  00:00:00=44,125 
5 SUIFabian CancellaraDNKTeam Saxo Bank04:49:38  +  00:00:00=44,125 
6 LUXAndy SchleckDNKTeam Saxo Bank04:49:48  +  00:00:10=44,099 
7 BELJohan VansummerenUSAGarmin-Transitions04:50:31  +  00:00:53=43,991 
8 BELBradley WigginsGBRSky Procycling04:50:31  +  00:00:53=43,991 
9 BELJurgen Van Den BroeckBELOmega Pharma - Lotto04:50:31  +  00:00:53=43,991 
10 KAZAlexandre VinokourovKAZAstana Pro Team04:50:31  +  00:00:53=43,991 
11 RUSDenis MenchovNLDRabobank04:50:31  +  00:00:53=43,991 
12 FRANicolas RocheFRAAg2r La Mondiale04:50:31  +  00:00:53=43,991 
13 ESPAlberto ContadorKAZAstana Pro Team04:50:51  +  00:01:13=43,940 
14 AUSRobbie McEwenRUSTeam Katusha04:51:24  +  00:01:46=43,857 
15 BELMario AertsBELOmega Pharma - Lotto04:51:24  +  00:01:46=43,857 
16 ESPArkaitz DuranESPFooton-Servetto04:51:24  +  00:01:46=43,857 
17 ESPJosé Joaquin RojasESPCaisse d´Epargne04:51:24  +  00:01:46=43,857 
18 ESPLuis León SánchezESPCaisse d´Epargne04:51:24  +  00:01:46=43,857 
19 CZERoman KreuzigerITALiquigas-Doimo04:51:24  +  00:01:46=43,857 
20 SWEThomas LövkvistGBRSky Procycling04:51:24  +  00:01:46=43,857 
21 MLTDavid MillarUSAGarmin-Transitions04:51:24  +  00:01:46=43,857 
22 GERGerald CiolekDEUTeam Milram04:51:46  +  00:02:08=43,802 
23 FRASébastien MinardFRACofidis Le Credit En Ligne04:51:46  +  00:02:08=43,802 
24 BELSerge PauwelsGBRSky Procycling04:51:46  +  00:02:08=43,802 
25 IOMMark CavendishUSATeam Columbia-HTC04:51:46  +  00:02:08=43,802 
26 AUSStuart O'GradyDNKTeam Saxo Bank04:51:46  +  00:02:08=43,802 
27 NEDMartijn MaaskantUSAGarmin-Transitions04:51:46  +  00:02:08=43,802 
28 ITAAlessandro PetacchiITALampre-Farnese Vini04:51:46  +  00:02:08=43,802 
29 FRAChristophe Le MevelFRAFrancaise Des Jeux04:51:46  +  00:02:08=43,802 
30 SUIJakob FuglsangDNKTeam Saxo Bank04:51:46  +  00:02:08=43,802 
31 FRAChristophe RiblonFRAAg2r La Mondiale04:51:46  +  00:02:08=43,802 
32 USALance ArmstrongUSATeam Radio Shack04:51:46  +  00:02:08=43,802 
33 FRALloyd MondoryFRAAg2r La Mondiale04:51:46  +  00:02:08=43,802 
34 FRASébastien TurgotFRABbox Bouygues Telecom04:51:46  +  00:02:08=43,802 
35 ESPJuan Manuel GarateNLDRabobank04:51:46  +  00:02:08=43,802 
36 NEDBram TankinkNLDRabobank04:51:46  +  00:02:08=43,802 
37 ESPSamuel SanchezESPEuskaltel - Euskadi04:51:46  +  00:02:08=43,802 
38 FRAJohn GadretFRAAg2r La Mondiale04:51:46  +  00:02:08=43,802 
39 BELJürgen RoelandtsBELOmega Pharma - Lotto04:51:46  +  00:02:08=43,802 
40 GERDanilo HondoITALampre-Farnese Vini04:51:51  +  00:02:13=43,790 
41 RSARobert HunterUSAGarmin-Transitions04:52:03  +  00:02:25=43,760 
42 JPNChristopher HornerUSATeam Radio Shack04:52:03  +  00:02:25=43,760 
43 ITAIvan BassoITALiquigas-Doimo04:52:03  +  00:02:25=43,760 
44 SLOJanez BrajkovicUSATeam Radio Shack04:52:03  +  00:02:25=43,760 
45 FRASandy CasarFRAFrancaise Des Jeux04:52:03  +  00:02:25=43,760 
46 AUSMichael RogersUSATeam Columbia-HTC04:52:03  +  00:02:25=43,760 
47 NEDRobert GesinkNLDRabobank04:52:03  +  00:02:25=43,760 
48 ESPJoaquim RodriguezRUSTeam Katusha04:52:03  +  00:02:25=43,760 
49 RUSEduard VorganovRUSTeam Katusha04:52:03  +  00:02:25=43,760 
50 GERGrischa NiermannNLDRabobank04:52:03  +  00:02:25=43,760 
51 BELMaxime MonfortUSATeam Columbia-HTC04:52:03  +  00:02:25=43,760 
52 UKRVolodymir GustovCHECervelo Test Team04:52:03  +  00:02:25=43,760 
53 ESPIñaki Isasi FloresESPEuskaltel - Euskadi04:52:03  +  00:02:25=43,760 
54 ESPCarlos SastreCHECervelo Test Team04:52:03  +  00:02:25=43,760 
55 ESPEgoi MartínezESPEuskaltel - Euskadi04:52:03  +  00:02:25=43,760 
56 GERSebastian LangBELOmega Pharma - Lotto04:52:03  +  00:02:25=43,760 
57 GERMarcus BurghardtUSABMC Racing Team04:52:03  +  00:02:25=43,760 
58 CANMichael BarryGBRSky Procycling04:52:03  +  00:02:25=43,760 
59 ESPDaniel MorenoBELOmega Pharma - Lotto04:52:03  +  00:02:25=43,760 
60 USAGeorge HincapieUSABMC Racing Team04:52:03  +  00:02:25=43,760 
61 KAZMaxim IglinskiyKAZAstana Pro Team04:52:03  +  00:02:25=43,760 
62 FRAMatthieu LadagnousFRAFrancaise Des Jeux04:52:03  +  00:02:25=43,760 
63 GERChristian KneesDEUTeam Milram04:52:03  +  00:02:25=43,760 
64 USALevi LeipheimerUSATeam Radio Shack04:52:03  +  00:02:25=43,760 
65 ITAAlessandro BallanUSABMC Racing Team04:52:03  +  00:02:25=43,760 
66 ITAMauro Da DaltoITALampre-Farnese Vini04:52:03  +  00:02:25=43,760 
67 FRACyril GautierFRABbox Bouygues Telecom04:52:03  +  00:02:25=43,760 
68 SLOKristjan KorenITALiquigas-Doimo04:52:03  +  00:02:25=43,760 
69 FRAChristophe KernFRACofidis Le Credit En Ligne04:52:03  +  00:02:25=43,760 
70 ESPRafael Valls FerriESPFooton-Servetto04:52:03  +  00:02:25=43,760 
71 RUSAlexandr KolobnevRUSTeam Katusha04:52:03  +  00:02:25=43,760 
72 JPNYukiya ArashiroFRABbox Bouygues Telecom04:52:03  +  00:02:25=43,760 
73 FRAThomas VoecklerFRABbox Bouygues Telecom04:52:03  +  00:02:25=43,760 
74 ESPBenjamin NovalKAZAstana Pro Team04:52:03  +  00:02:25=43,760 
75 NEDKarsten KroonUSABMC Racing Team04:52:03  +  00:02:25=43,760 
76 ESPJosé Ivan GutierrezESPCaisse d´Epargne04:52:03  +  00:02:25=43,760 
77 FRAPierre RollandFRABbox Bouygues Telecom04:52:03  +  00:02:25=43,760 
78 GERAndréas KlödenUSATeam Radio Shack04:52:03  +  00:02:25=43,760 
79 FRABenoit VaugrenardFRAFrancaise Des Jeux04:52:03  +  00:02:25=43,760 
80 UKRAndriy GrivkoKAZAstana Pro Team04:52:03  +  00:02:25=43,760 
81 SUIMartin ElmigerFRAAg2r La Mondiale04:52:03  +  00:02:25=43,760 
82 RUSVladimir KarpetsRUSTeam Katusha04:52:03  +  00:02:25=43,760 
83 PORRui CostaESPCaisse d´Epargne04:52:03  +  00:02:25=43,760 
84 FRARémi PauriolFRACofidis Le Credit En Ligne04:52:03  +  00:02:25=43,760 
85 GERTony MartinUSATeam Columbia-HTC04:52:03  +  00:02:25=43,760 
86 ITAMirco LorenzettoITALampre-Farnese Vini04:52:03  +  00:02:25=43,760 
87 FRAStéphane AugeFRACofidis Le Credit En Ligne04:52:03  +  00:02:25=43,760 
88 RUSSerguei IvanovRUSTeam Katusha04:52:03  +  00:02:25=43,760 
89 NEDMaarten TjallingiiNLDRabobank04:52:03  +  00:02:25=43,760 
90 UKRYaroslav PopovychUSATeam Radio Shack04:52:03  +  00:02:25=43,760 
91 ENGStephen CummingsGBRSky Procycling04:52:15  +  00:02:37=43,730 
92 ARGJuan Antonio FlechaGBRSky Procycling04:52:21  +  00:02:43=43,715 
93 FRAJérôme PineauBELQuick Step04:53:36  +  00:03:58=43,529 
94 FRADamien MonierFRACofidis Le Credit En Ligne04:53:36  +  00:03:58=43,529 
95 FRASylvain ChavanelBELQuick Step04:53:36  +  00:03:58=43,529 
96 FRAAnthony GeslinFRAFrancaise Des Jeux04:53:36  +  00:03:58=43,529 
97 ITADaniel OssITALiquigas-Doimo04:53:36  +  00:03:58=43,529 
98 GERLinus GerdemannDEUTeam Milram04:53:36  +  00:03:58=43,529 
99 ESPCarlos BarredoBELQuick Step04:53:36  +  00:03:58=43,529 
100 BLRAliaksandr KuchynskiITALiquigas-Doimo04:53:36  +  00:03:58=43,529 
101 MDAAlexandr PliuschinRUSTeam Katusha04:53:36  +  00:03:58=43,529 
102 NEDLars BoomNLDRabobank04:53:36  +  00:03:58=43,529 
103 ESPImanol ErvitiESPCaisse d´Epargne04:53:36  +  00:03:58=43,529 
104 NOREdvald Boasson HagenGBRSky Procycling04:53:36  +  00:03:58=43,529 
105 BELStijn VandenberghRUSTeam Katusha04:55:26  +  00:05:48=43,258 
106 FRAChristophe MoreauESPCaisse d´Epargne04:56:06  +  00:06:28=43,161 
107 NEDKoos MoerenhoutNLDRabobank04:56:06  +  00:06:28=43,161 
108 AUSLuke RobertsDEUTeam Milram04:56:06  +  00:06:28=43,161 
109 DENBrian VandborgITALiquigas-Doimo04:56:06  +  00:06:28=43,161 
110 FRAPierrick FédrigoFRABbox Bouygues Telecom04:56:06  +  00:06:28=43,161 
111 BLRVasil KiryienkaESPCaisse d´Epargne04:56:06  +  00:06:28=43,161 
112 BLRKanstantin SivtsovUSATeam Columbia-HTC04:56:06  +  00:06:28=43,161 
113 AUTThomas RohreggerDEUTeam Milram04:56:06  +  00:06:28=43,161 
114 DENMatti BreschelDNKTeam Saxo Bank04:56:06  +  00:06:28=43,161 
115 BELKevin De WeertBELQuick Step04:56:06  +  00:06:28=43,161 
116 ESPRuben PerezESPEuskaltel - Euskadi04:56:06  +  00:06:28=43,161 
117 ESPJosé BenitezESPFooton-Servetto04:56:06  +  00:06:28=43,161 
118 GERFabian WegmannDEUTeam Milram04:56:06  +  00:06:28=43,161 
119 FRARémy Di GrégorioFRAFrancaise Des Jeux04:56:06  +  00:06:28=43,161 
120 AUTMarkus EibeggerESPFooton-Servetto04:56:06  +  00:06:28=43,161 
121 BELMaarten WynantsBELQuick Step04:56:06  +  00:06:28=43,161 
122 ESPAitor PerezESPFooton-Servetto04:56:06  +  00:06:28=43,161 
123 ESPIban MayozESPFooton-Servetto04:56:06  +  00:06:28=43,161 
124 AUSWesley SulzbergerFRAFrancaise Des Jeux04:56:06  +  00:06:28=43,161 
125 AUSMark RenshawUSATeam Columbia-HTC04:56:06  +  00:06:28=43,161 
126 GERBert GrabschUSATeam Columbia-HTC04:56:06  +  00:06:28=43,161 
127 PORSergio PaulinhoUSATeam Radio Shack04:56:06  +  00:06:28=43,161 
128 ENGDaniel LloydCHECervelo Test Team04:56:06  +  00:06:28=43,161 
129 GERAndreas KlierCHECervelo Test Team04:56:06  +  00:06:28=43,161 
130 ESPRubén PlazaESPCaisse d´Epargne04:56:06  +  00:06:28=43,161 
131 FRAJulien El FarèsFRACofidis Le Credit En Ligne04:56:06  +  00:06:28=43,161 
132 URSIgnatas KonovalovasCHECervelo Test Team04:56:06  +  00:06:28=43,161 
133 GERJohannes FröhlingerDEUTeam Milram04:56:06  +  00:06:28=43,161 
134 USATyler FarrarUSAGarmin-Transitions04:56:06  +  00:06:28=43,161 
135 GERJens VoigtDNKTeam Saxo Bank04:56:06  +  00:06:28=43,161 
136 SUIGregory RastUSATeam Radio Shack04:56:06  +  00:06:28=43,161 
137 NZLJulian DeanUSAGarmin-Transitions04:56:06  +  00:06:28=43,161 
138 KAZDmitriy MuravyevUSATeam Radio Shack04:56:06  +  00:06:28=43,161 
139 FRANicolas VogondyFRABbox Bouygues Telecom04:56:06  +  00:06:28=43,161 
140 GERRoger KlugeDEUTeam Milram04:56:41  +  00:07:03=43,076 
141 FRAAnthony CharteauFRABbox Bouygues Telecom04:59:19  +  00:09:41=42,697 
142 BELFrancis De GreefBELOmega Pharma - Lotto04:59:27  +  00:09:49=42,678 
143 BELJurgen Van De WalleBELQuick Step04:59:27  +  00:09:49=42,678 
144 ITAManuel QuinziatoITALiquigas-Doimo04:59:27  +  00:09:49=42,678 
145 USADavid ZabriskieUSAGarmin-Transitions04:59:27  +  00:09:49=42,678 
146 FRAAnthony RouxFRAFrancaise Des Jeux04:59:27  +  00:09:49=42,678 
147 ITAFabio FellineESPFooton-Servetto04:59:27  +  00:09:49=42,678 
148 ITAFrancesco GavazziITALampre-Farnese Vini04:59:27  +  00:09:49=42,678 
149 ESPGorka VerdugoESPEuskaltel - Euskadi04:59:27  +  00:09:49=42,678 
150 USABrent BookwalterUSABMC Racing Team04:59:27  +  00:09:49=42,678 
151 ESPAlan PerezESPEuskaltel - Euskadi04:59:27  +  00:09:49=42,678 
152 FRAMatthieu SprickFRABbox Bouygues Telecom04:59:27  +  00:09:49=42,678 
153 FRAAmaël MoinardFRACofidis Le Credit En Ligne04:59:27  +  00:09:49=42,678 
154 FRAJérémy RoyFRAFrancaise Des Jeux04:59:27  +  00:09:49=42,678 
155 AUSSimon GerransGBRSky Procycling04:59:27  +  00:09:49=42,678 
156 AUSBrett LancasterCHECervelo Test Team04:59:27  +  00:09:49=42,678 
157 AUTBernhard EiselUSATeam Columbia-HTC04:59:27  +  00:09:49=42,678 
158 ESPÓscar Freire GómezNLDRabobank04:59:27  +  00:09:49=42,678 
159 BELKevin SeeldraeyersBELQuick Step04:59:27  +  00:09:49=42,678 
160 RUSPavel BruttRUSTeam Katusha05:01:15  +  00:11:37=42,423 
161 SUISteve MorabitoUSABMC Racing Team05:02:02  +  00:12:24=42,313 
162 ESPAmets TxurrukaESPEuskaltel - Euskadi05:02:02  +  00:12:24=42,313 
163 ESPIvan VelascoESPEuskaltel - Euskadi05:02:02  +  00:12:24=42,313 
164 ITAPaolo TiralongoKAZAstana Pro Team05:02:02  +  00:12:24=42,313 
165 ITAEros CapecchiESPFooton-Servetto05:02:02  +  00:12:24=42,313 
166 ITARinaldo NocentiniFRAAg2r La Mondiale05:02:02  +  00:12:24=42,313 
167 FRADimitri ChampionFRAAg2r La Mondiale05:02:02  +  00:12:24=42,313 
168 AUSMatthew LloydBELOmega Pharma - Lotto05:02:02  +  00:12:24=42,313 
169 ESPDaniel NavarroKAZAstana Pro Team05:02:02  +  00:12:24=42,313 
170 ESPDavid De La FuenteKAZAstana Pro Team05:02:02  +  00:12:24=42,313 
171 ESPJesus  HernandezKAZAstana Pro Team05:02:02  +  00:12:24=42,313 
172 CANJeremy HuntCHECervelo Test Team05:03:32  +  00:13:54=42,104 
173 FRASamuel DumoulinFRACofidis Le Credit En Ligne05:05:57  +  00:16:19=41,772 
174 FRAMaxime BouetFRAAg2r La Mondiale05:05:57  +  00:16:19=41,772 
175 POLSylvester SzmydITALiquigas-Doimo05:06:30  +  00:16:52=41,697 
176 ITAMauro SantambrogioUSABMC Racing Team05:06:30  +  00:16:52=41,697 
177 FRAMathieu PergetESPCaisse d´Epargne05:06:41  +  00:17:03=41,672 
178 ITAFrancesco RedaBELQuick Step05:06:41  +  00:17:03=41,672 
179 DENChris Anker SørensenDNKTeam Saxo Bank05:06:41  +  00:17:03=41,672 
180 BELDries DevenynsBELQuick Step05:06:41  +  00:17:03=41,672 
181 SLOSimon SpilakITALampre-Farnese Vini05:06:41  +  00:17:03=41,672 
182 FINCharles WegeliusBELOmega Pharma - Lotto05:06:41  +  00:17:03=41,672 
183 ITAFrancesco BellottiITALiquigas-Doimo05:06:41  +  00:17:03=41,672 
184 URSRein TaaramäeFRACofidis Le Credit En Ligne05:06:41  +  00:17:03=41,672 
185 DENNicki SørensenDNKTeam Saxo Bank05:06:41  +  00:17:03=41,672 
186 ITADamiano CunegoITALampre-Farnese Vini05:06:41  +  00:17:03=41,672 
187 SLOGrega BoleITALampre-Farnese Vini05:06:41  +  00:17:03=41,672 
188 ESPJuan José OrozESPEuskaltel - Euskadi05:06:41  +  00:17:03=41,672 
189 ITAAdriano MaloriITALampre-Farnese Vini05:12:34  +  00:22:56=40,887 

Withdrawls: 3
 
Rider
Team
Reason
16  LUXFränk SchleckDNKTeam Saxo BankDid not finish
51  USAChristian VandeveldeUSAGarmin-TransitionsDid not start
148  NEDNiki TerpstraDEUTeam MilramDid not start

Todays birthdays.

1895  François Colomines
1901  Victor Pellier
1921  Maurice Carpentier
1921  Hans Hutmacher
1924  Norbert Callens
1928  Armand Baeyens
1933  Adriano Zamboni
1944  Ercole Gualazzini
1952  Jose Lopez
1956  Alfons De Wolf
1958  Sergio Jaramillo
1961  José Vieira
1963  Luigi Furlan
1972  Dariusz Baranowski
1973  Cyril Saugrain
1975  Andréas Klöden
1977  Angelo Furlan
1979  Thomas Voeckler
1983  Jérémy Roy




Visits: